sensor_id;sensor_type;location;lat;lon;timestamp;P1;durP1;ratioP1;P2;durP2;ratioP2
58308;SDS011;44117;57.142;24.826;2022-07-01T00:01:41;9.52;;;8.23;;
58308;SDS011;44117;57.142;24.826;2022-07-01T00:04:09;10.75;;;8.18;;
58308;SDS011;44117;57.142;24.826;2022-07-01T00:06:37;10.88;;;8.20;;
58308;SDS011;44117;57.142;24.826;2022-07-01T00:09:04;10.95;;;8.27;;
58308;SDS011;44117;57.142;24.826;2022-07-01T00:11:32;8.35;;;7.32;;
58308;SDS011;44117;57.142;24.826;2022-07-01T00:13:59;10.15;;;7.80;;
58308;SDS011;44117;57.142;24.826;2022-07-01T00:16:26;10.45;;;7.38;;
58308;SDS011;44117;57.142;24.826;2022-07-01T00:18:54;9.25;;;7.60;;
58308;SDS011;44117;57.142;24.826;2022-07-01T00:21:21;10.02;;;7.82;;
58308;SDS011;44117;57.142;24.826;2022-07-01T00:23:49;9.00;;;7.30;;
58308;SDS011;44117;57.142;24.826;2022-07-01T00:26:16;8.73;;;7.82;;
58308;SDS011;44117;57.142;24.826;2022-07-01T00:28:43;10.63;;;7.60;;
58308;SDS011;44117;57.142;24.826;2022-07-01T00:31:11;8.48;;;7.40;;
58308;SDS011;44117;57.142;24.826;2022-07-01T00:33:39;11.15;;;7.53;;
58308;SDS011;44117;57.142;24.826;2022-07-01T00:36:06;10.35;;;7.15;;
58308;SDS011;44117;57.142;24.826;2022-07-01T00:38:34;8.43;;;7.57;;
58308;SDS011;44117;57.142;24.826;2022-07-01T00:41:01;12.80;;;7.80;;
58308;SDS011;44117;57.142;24.826;2022-07-01T00:43:33;8.68;;;6.80;;
58308;SDS011;44117;57.142;24.826;2022-07-01T00:46:19;7.82;;;7.03;;
58308;SDS011;44117;57.142;24.826;2022-07-01T00:48:48;9.18;;;6.30;;
58308;SDS011;44117;57.142;24.826;2022-07-01T00:51:20;7.50;;;6.80;;
58308;SDS011;44117;57.142;24.826;2022-07-01T00:53:48;10.38;;;6.55;;
58308;SDS011;44117;57.142;24.826;2022-07-01T00:56:15;7.63;;;6.90;;
58308;SDS011;44117;57.142;24.826;2022-07-01T00:58:43;7.75;;;6.70;;
58308;SDS011;44117;57.142;24.826;2022-07-01T01:01:10;11.90;;;6.75;;
58308;SDS011;44117;57.142;24.826;2022-07-01T01:03:38;8.55;;;6.50;;
58308;SDS011;44117;57.142;24.826;2022-07-01T01:06:05;9.18;;;6.80;;
58308;SDS011;44117;57.142;24.826;2022-07-01T01:08:33;9.10;;;6.50;;
58308;SDS011;44117;57.142;24.826;2022-07-01T01:11:00;7.75;;;6.53;;
58308;SDS011;44117;57.142;24.826;2022-07-01T01:13:30;7.40;;;6.15;;
58308;SDS011;44117;57.142;24.826;2022-07-01T01:15:57;11.23;;;6.22;;
58308;SDS011;44117;57.142;24.826;2022-07-01T01:18:25;6.70;;;6.00;;
58308;SDS011;44117;57.142;24.826;2022-07-01T01:20:52;8.32;;;5.97;;
58308;SDS011;44117;57.142;24.826;2022-07-01T01:23:20;10.80;;;6.18;;
58308;SDS011;44117;57.142;24.826;2022-07-01T01:25:48;7.00;;;5.38;;
58308;SDS011;44117;57.142;24.826;2022-07-01T01:28:15;6.65;;;5.80;;
58308;SDS011;44117;57.142;24.826;2022-07-01T01:30:43;7.07;;;6.05;;
58308;SDS011;44117;57.142;24.826;2022-07-01T01:33:10;6.43;;;5.82;;
58308;SDS011;44117;57.142;24.826;2022-07-01T01:35:38;6.68;;;6.00;;
58308;SDS011;44117;57.142;24.826;2022-07-01T01:38:07;7.93;;;5.85;;
58308;SDS011;44117;57.142;24.826;2022-07-01T01:40:34;8.07;;;6.28;;
58308;SDS011;44117;57.142;24.826;2022-07-01T01:43:01;7.70;;;5.65;;
58308;SDS011;44117;57.142;24.826;2022-07-01T01:45:29;8.13;;;6.25;;
58308;SDS011;44117;57.142;24.826;2022-07-01T01:47:56;6.43;;;5.65;;
58308;SDS011;44117;57.142;24.826;2022-07-01T01:50:23;6.25;;;5.65;;
58308;SDS011;44117;57.142;24.826;2022-07-01T01:52:51;8.05;;;5.85;;
58308;SDS011;44117;57.142;24.826;2022-07-01T01:55:18;7.32;;;5.68;;
58308;SDS011;44117;57.142;24.826;2022-07-01T01:57:46;8.07;;;5.82;;
58308;SDS011;44117;57.142;24.826;2022-07-01T02:00:13;9.80;;;6.05;;
58308;SDS011;44117;57.142;24.826;2022-07-01T02:02:41;7.32;;;5.75;;
58308;SDS011;44117;57.142;24.826;2022-07-01T02:05:10;6.78;;;5.93;;
58308;SDS011;44117;57.142;24.826;2022-07-01T02:07:39;6.00;;;5.40;;
58308;SDS011;44117;57.142;24.826;2022-07-01T02:10:07;6.85;;;5.95;;
58308;SDS011;44117;57.142;24.826;2022-07-01T02:12:34;10.77;;;6.18;;
58308;SDS011;44117;57.142;24.826;2022-07-01T02:15:02;6.45;;;5.80;;
58308;SDS011;44117;57.142;24.826;2022-07-01T02:17:30;9.75;;;6.35;;
58308;SDS011;44117;57.142;24.826;2022-07-01T02:19:57;9.70;;;6.10;;
58308;SDS011;44117;57.142;24.826;2022-07-01T02:22:24;7.97;;;6.15;;
58308;SDS011;44117;57.142;24.826;2022-07-01T02:24:52;6.80;;;6.10;;
58308;SDS011;44117;57.142;24.826;2022-07-01T02:27:19;6.53;;;5.75;;
58308;SDS011;44117;57.142;24.826;2022-07-01T02:29:47;7.05;;;6.05;;
58308;SDS011;44117;57.142;24.826;2022-07-01T02:32:14;6.88;;;6.15;;
58308;SDS011;44117;57.142;24.826;2022-07-01T02:34:41;7.82;;;5.82;;
58308;SDS011;44117;57.142;24.826;2022-07-01T02:37:09;10.20;;;6.00;;
58308;SDS011;44117;57.142;24.826;2022-07-01T02:39:36;6.68;;;5.90;;
58308;SDS011;44117;57.142;24.826;2022-07-01T02:42:03;8.27;;;5.75;;
58308;SDS011;44117;57.142;24.826;2022-07-01T02:44:49;6.90;;;6.20;;
58308;SDS011;44117;57.142;24.826;2022-07-01T02:47:17;13.68;;;6.35;;
58308;SDS011;44117;57.142;24.826;2022-07-01T02:49:44;7.32;;;6.05;;
58308;SDS011;44117;57.142;24.826;2022-07-01T02:52:11;7.20;;;6.50;;
58308;SDS011;44117;57.142;24.826;2022-07-01T02:54:39;6.63;;;5.80;;
58308;SDS011;44117;57.142;24.826;2022-07-01T02:57:07;8.10;;;6.50;;
58308;SDS011;44117;57.142;24.826;2022-07-01T02:59:37;6.30;;;5.70;;
58308;SDS011;44117;57.142;24.826;2022-07-01T03:02:05;6.53;;;5.90;;
58308;SDS011;44117;57.142;24.826;2022-07-01T03:04:32;9.38;;;5.95;;
58308;SDS011;44117;57.142;24.826;2022-07-01T03:07:00;7.97;;;5.80;;
58308;SDS011;44117;57.142;24.826;2022-07-01T03:09:27;7.53;;;6.05;;
58308;SDS011;44117;57.142;24.826;2022-07-01T03:11:55;10.00;;;6.10;;
58308;SDS011;44117;57.142;24.826;2022-07-01T03:14:22;10.07;;;6.45;;
58308;SDS011;44117;57.142;24.826;2022-07-01T03:16:50;9.32;;;6.07;;
58308;SDS011;44117;57.142;24.826;2022-07-01T03:19:17;11.77;;;6.50;;
58308;SDS011;44117;57.142;24.826;2022-07-01T03:21:44;10.57;;;6.28;;
58308;SDS011;44117;57.142;24.826;2022-07-01T03:24:12;7.60;;;6.28;;
58308;SDS011;44117;57.142;24.826;2022-07-01T03:26:39;7.22;;;6.25;;
58308;SDS011;44117;57.142;24.826;2022-07-01T03:29:06;9.32;;;6.22;;
58308;SDS011;44117;57.142;24.826;2022-07-01T03:31:34;6.90;;;6.20;;
58308;SDS011;44117;57.142;24.826;2022-07-01T03:34:01;7.97;;;6.00;;
58308;SDS011;44117;57.142;24.826;2022-07-01T03:36:28;8.88;;;6.30;;
58308;SDS011;44117;57.142;24.826;2022-07-01T03:38:56;8.88;;;6.20;;
58308;SDS011;44117;57.142;24.826;2022-07-01T03:41:23;10.05;;;6.22;;
58308;SDS011;44117;57.142;24.826;2022-07-01T03:43:51;6.40;;;5.80;;
58308;SDS011;44117;57.142;24.826;2022-07-01T03:46:18;8.25;;;6.10;;
58308;SDS011;44117;57.142;24.826;2022-07-01T03:48:45;7.15;;;6.35;;
58308;SDS011;44117;57.142;24.826;2022-07-01T03:51:13;7.40;;;5.78;;
58308;SDS011;44117;57.142;24.826;2022-07-01T03:53:40;7.70;;;6.60;;
58308;SDS011;44117;57.142;24.826;2022-07-01T03:56:26;7.38;;;6.18;;
58308;SDS011;44117;57.142;24.826;2022-07-01T03:58:53;7.47;;;6.57;;
58308;SDS011;44117;57.142;24.826;2022-07-01T04:01:21;8.48;;;6.78;;
58308;SDS011;44117;57.142;24.826;2022-07-01T04:03:48;7.57;;;6.50;;
58308;SDS011;44117;57.142;24.826;2022-07-01T04:06:16;6.78;;;6.18;;
58308;SDS011;44117;57.142;24.826;2022-07-01T04:08:44;9.35;;;6.65;;
58308;SDS011;44117;57.142;24.826;2022-07-01T04:11:13;7.20;;;6.40;;
58308;SDS011;44117;57.142;24.826;2022-07-01T04:13:41;10.90;;;6.25;;
58308;SDS011;44117;57.142;24.826;2022-07-01T04:16:17;7.65;;;6.57;;
58308;SDS011;44117;57.142;24.826;2022-07-01T04:18:45;8.73;;;6.78;;
58308;SDS011;44117;57.142;24.826;2022-07-01T04:21:13;10.82;;;6.57;;
58308;SDS011;44117;57.142;24.826;2022-07-01T04:24:03;9.55;;;6.93;;
58308;SDS011;44117;57.142;24.826;2022-07-01T04:26:32;7.97;;;6.28;;
58308;SDS011;44117;57.142;24.826;2022-07-01T04:29:04;12.30;;;7.22;;
58308;SDS011;44117;57.142;24.826;2022-07-01T04:31:31;8.52;;;6.90;;
58308;SDS011;44117;57.142;24.826;2022-07-01T04:33:59;8.77;;;6.93;;
58308;SDS011;44117;57.142;24.826;2022-07-01T04:36:26;7.90;;;6.60;;
58308;SDS011;44117;57.142;24.826;2022-07-01T04:38:54;9.90;;;6.78;;
58308;SDS011;44117;57.142;24.826;2022-07-01T04:41:22;11.52;;;7.28;;
58308;SDS011;44117;57.142;24.826;2022-07-01T04:44:08;10.63;;;6.85;;
58308;SDS011;44117;57.142;24.826;2022-07-01T04:46:35;9.57;;;6.82;;
58308;SDS011;44117;57.142;24.826;2022-07-01T04:49:03;9.32;;;7.03;;
58308;SDS011;44117;57.142;24.826;2022-07-01T04:51:30;13.55;;;6.97;;
58308;SDS011;44117;57.142;24.826;2022-07-01T04:54:02;14.07;;;7.00;;
58308;SDS011;44117;57.142;24.826;2022-07-01T04:56:30;10.57;;;6.95;;
58308;SDS011;44117;57.142;24.826;2022-07-01T04:58:57;8.95;;;6.88;;
58308;SDS011;44117;57.142;24.826;2022-07-01T05:01:24;11.68;;;6.43;;
58308;SDS011;44117;57.142;24.826;2022-07-01T05:03:52;11.60;;;7.03;;
58308;SDS011;44117;57.142;24.826;2022-07-01T05:06:19;12.00;;;6.97;;
58308;SDS011;44117;57.142;24.826;2022-07-01T05:08:47;8.68;;;7.20;;
58308;SDS011;44117;57.142;24.826;2022-07-01T05:11:15;12.55;;;6.65;;
58308;SDS011;44117;57.142;24.826;2022-07-01T05:13:42;12.60;;;7.05;;
58308;SDS011;44117;57.142;24.826;2022-07-01T05:16:09;14.30;;;7.05;;
58308;SDS011;44117;57.142;24.826;2022-07-01T05:18:38;10.77;;;7.35;;
58308;SDS011;44117;57.142;24.826;2022-07-01T05:21:25;14.50;;;7.32;;
58308;SDS011;44117;57.142;24.826;2022-07-01T05:24:11;9.80;;;6.68;;
58308;SDS011;44117;57.142;24.826;2022-07-01T05:26:38;7.82;;;6.43;;
58308;SDS011;44117;57.142;24.826;2022-07-01T05:29:05;9.80;;;6.32;;
58308;SDS011;44117;57.142;24.826;2022-07-01T05:31:33;10.00;;;6.40;;
58308;SDS011;44117;57.142;24.826;2022-07-01T05:34:00;8.73;;;6.57;;
58308;SDS011;44117;57.142;24.826;2022-07-01T05:36:30;8.73;;;6.90;;
58308;SDS011;44117;57.142;24.826;2022-07-01T05:38:58;9.32;;;6.20;;
58308;SDS011;44117;57.142;24.826;2022-07-01T05:41:25;9.80;;;6.38;;
58308;SDS011;44117;57.142;24.826;2022-07-01T05:43:52;9.95;;;6.75;;
58308;SDS011;44117;57.142;24.826;2022-07-01T05:46:20;12.13;;;6.50;;
58308;SDS011;44117;57.142;24.826;2022-07-01T05:48:47;12.43;;;6.70;;
58308;SDS011;44117;57.142;24.826;2022-07-01T05:51:15;9.40;;;6.45;;
58308;SDS011;44117;57.142;24.826;2022-07-01T05:53:42;11.32;;;6.72;;
58308;SDS011;44117;57.142;24.826;2022-07-01T05:56:10;7.95;;;6.78;;
58308;SDS011;44117;57.142;24.826;2022-07-01T05:58:37;15.88;;;6.65;;
58308;SDS011;44117;57.142;24.826;2022-07-01T06:01:04;11.00;;;6.78;;
58308;SDS011;44117;57.142;24.826;2022-07-01T06:03:35;11.02;;;6.85;;
58308;SDS011;44117;57.142;24.826;2022-07-01T06:06:03;9.25;;;6.80;;
58308;SDS011;44117;57.142;24.826;2022-07-01T06:08:30;14.10;;;7.00;;
58308;SDS011;44117;57.142;24.826;2022-07-01T06:10:58;8.57;;;6.78;;
58308;SDS011;44117;57.142;24.826;2022-07-01T06:13:26;9.60;;;6.60;;
58308;SDS011;44117;57.142;24.826;2022-07-01T06:15:55;9.48;;;6.70;;
58308;SDS011;44117;57.142;24.826;2022-07-01T06:18:25;8.98;;;6.55;;
58308;SDS011;44117;57.142;24.826;2022-07-01T06:20:53;10.02;;;6.78;;
58308;SDS011;44117;57.142;24.826;2022-07-01T06:23:20;10.32;;;7.30;;
58308;SDS011;44117;57.142;24.826;2022-07-01T06:25:47;10.48;;;6.90;;
58308;SDS011;44117;57.142;24.826;2022-07-01T06:28:15;7.88;;;6.57;;
58308;SDS011;44117;57.142;24.826;2022-07-01T06:30:42;10.20;;;6.90;;
58308;SDS011;44117;57.142;24.826;2022-07-01T06:33:10;11.63;;;6.72;;
58308;SDS011;44117;57.142;24.826;2022-07-01T06:35:39;8.07;;;6.55;;
58308;SDS011;44117;57.142;24.826;2022-07-01T06:38:07;10.63;;;6.40;;
58308;SDS011;44117;57.142;24.826;2022-07-01T06:40:34;15.88;;;6.72;;
58308;SDS011;44117;57.142;24.826;2022-07-01T06:43:02;7.63;;;6.80;;
58308;SDS011;44117;57.142;24.826;2022-07-01T06:45:29;9.48;;;6.68;;
58308;SDS011;44117;57.142;24.826;2022-07-01T06:47:57;8.93;;;6.53;;
58308;SDS011;44117;57.142;24.826;2022-07-01T06:50:24;7.95;;;7.05;;
58308;SDS011;44117;57.142;24.826;2022-07-01T06:52:52;8.48;;;6.53;;
58308;SDS011;44117;57.142;24.826;2022-07-01T06:55:19;7.50;;;6.80;;
58308;SDS011;44117;57.142;24.826;2022-07-01T06:57:47;9.73;;;6.78;;
58308;SDS011;44117;57.142;24.826;2022-07-01T07:00:14;7.53;;;6.40;;
58308;SDS011;44117;57.142;24.826;2022-07-01T07:02:42;9.77;;;6.25;;
58308;SDS011;44117;57.142;24.826;2022-07-01T07:05:09;12.70;;;10.40;;
58308;SDS011;44117;57.142;24.826;2022-07-01T07:07:37;11.88;;;9.55;;
58308;SDS011;44117;57.142;24.826;2022-07-01T07:10:05;9.85;;;8.95;;
58308;SDS011;44117;57.142;24.826;2022-07-01T07:12:33;8.27;;;6.82;;
58308;SDS011;44117;57.142;24.826;2022-07-01T07:15:00;8.00;;;6.30;;
58308;SDS011;44117;57.142;24.826;2022-07-01T07:17:27;7.35;;;6.55;;
58308;SDS011;44117;57.142;24.826;2022-07-01T07:19:55;11.50;;;6.60;;
58308;SDS011;44117;57.142;24.826;2022-07-01T07:22:22;10.07;;;6.00;;
58308;SDS011;44117;57.142;24.826;2022-07-01T07:24:50;9.00;;;6.22;;
58308;SDS011;44117;57.142;24.826;2022-07-01T07:27:17;11.13;;;6.45;;
58308;SDS011;44117;57.142;24.826;2022-07-01T07:29:45;11.25;;;6.43;;
58308;SDS011;44117;57.142;24.826;2022-07-01T07:32:12;12.25;;;6.15;;
58308;SDS011;44117;57.142;24.826;2022-07-01T07:34:39;8.32;;;6.30;;
58308;SDS011;44117;57.142;24.826;2022-07-01T07:37:07;13.20;;;6.50;;
58308;SDS011;44117;57.142;24.826;2022-07-01T07:39:34;12.18;;;6.88;;
58308;SDS011;44117;57.142;24.826;2022-07-01T07:42:02;10.25;;;6.72;;
58308;SDS011;44117;57.142;24.826;2022-07-01T07:44:30;15.70;;;7.20;;
58308;SDS011;44117;57.142;24.826;2022-07-01T07:46:58;9.07;;;5.80;;
58308;SDS011;44117;57.142;24.826;2022-07-01T07:49:25;11.13;;;6.10;;
58308;SDS011;44117;57.142;24.826;2022-07-01T07:51:54;7.43;;;6.40;;
58308;SDS011;44117;57.142;24.826;2022-07-01T07:54:21;7.70;;;6.03;;
58308;SDS011;44117;57.142;24.826;2022-07-01T07:56:48;7.65;;;6.10;;
58308;SDS011;44117;57.142;24.826;2022-07-01T07:59:16;8.25;;;6.50;;
58308;SDS011;44117;57.142;24.826;2022-07-01T08:01:43;10.27;;;6.45;;
58308;SDS011;44117;57.142;24.826;2022-07-01T08:04:10;9.50;;;6.88;;
58308;SDS011;44117;57.142;24.826;2022-07-01T08:06:38;9.30;;;6.63;;
58308;SDS011;44117;57.142;24.826;2022-07-01T08:09:06;11.00;;;6.93;;
58308;SDS011;44117;57.142;24.826;2022-07-01T08:11:33;13.13;;;6.95;;
58308;SDS011;44117;57.142;24.826;2022-07-01T08:14:00;10.40;;;7.13;;
58308;SDS011;44117;57.142;24.826;2022-07-01T08:16:28;12.00;;;7.68;;
58308;SDS011;44117;57.142;24.826;2022-07-01T08:18:55;15.00;;;7.63;;
58308;SDS011;44117;57.142;24.826;2022-07-01T08:21:23;13.05;;;10.55;;
58308;SDS011;44117;57.142;24.826;2022-07-01T08:23:50;12.65;;;8.90;;
58308;SDS011;44117;57.142;24.826;2022-07-01T08:26:18;9.70;;;7.55;;
58308;SDS011;44117;57.142;24.826;2022-07-01T08:28:45;11.52;;;7.80;;
58308;SDS011;44117;57.142;24.826;2022-07-01T08:31:13;8.43;;;7.20;;
58308;SDS011;44117;57.142;24.826;2022-07-01T08:33:41;10.73;;;7.43;;
58308;SDS011;44117;57.142;24.826;2022-07-01T08:36:09;10.98;;;7.03;;
58308;SDS011;44117;57.142;24.826;2022-07-01T08:38:36;9.70;;;7.35;;
58308;SDS011;44117;57.142;24.826;2022-07-01T08:41:04;14.30;;;7.30;;
58308;SDS011;44117;57.142;24.826;2022-07-01T08:43:31;13.43;;;8.10;;
58308;SDS011;44117;57.142;24.826;2022-07-01T08:46:00;14.25;;;7.78;;
58308;SDS011;44117;57.142;24.826;2022-07-01T08:48:29;9.65;;;8.00;;
58308;SDS011;44117;57.142;24.826;2022-07-01T08:50:57;12.57;;;7.88;;
58308;SDS011;44117;57.142;24.826;2022-07-01T08:53:25;12.38;;;8.05;;
58308;SDS011;44117;57.142;24.826;2022-07-01T08:55:52;9.27;;;7.70;;
58308;SDS011;44117;57.142;24.826;2022-07-01T08:58:38;13.07;;;8.68;;
58308;SDS011;44117;57.142;24.826;2022-07-01T09:01:38;12.30;;;8.35;;
58308;SDS011;44117;57.142;24.826;2022-07-01T09:04:33;14.40;;;8.70;;
58308;SDS011;44117;57.142;24.826;2022-07-01T09:06:59;11.90;;;8.25;;
58308;SDS011;44117;57.142;24.826;2022-07-01T09:09:38;10.07;;;8.02;;
58308;SDS011;44117;57.142;24.826;2022-07-01T09:12:07;9.15;;;7.90;;
58308;SDS011;44117;57.142;24.826;2022-07-01T09:14:35;11.18;;;8.45;;
58308;SDS011;44117;57.142;24.826;2022-07-01T09:17:04;11.57;;;8.93;;
58308;SDS011;44117;57.142;24.826;2022-07-01T09:19:34;12.55;;;8.68;;
58308;SDS011;44117;57.142;24.826;2022-07-01T09:22:11;16.60;;;8.48;;
58308;SDS011;44117;57.142;24.826;2022-07-01T09:24:39;13.27;;;8.20;;
58308;SDS011;44117;57.142;24.826;2022-07-01T09:27:13;10.90;;;9.30;;
58308;SDS011;44117;57.142;24.826;2022-07-01T09:32:13;9.15;;;8.18;;
58308;SDS011;44117;57.142;24.826;2022-07-01T09:34:50;9.85;;;8.43;;
58308;SDS011;44117;57.142;24.826;2022-07-01T09:37:23;9.43;;;8.52;;
58308;SDS011;44117;57.142;24.826;2022-07-01T09:39:52;12.18;;;8.90;;
58308;SDS011;44117;57.142;24.826;2022-07-01T09:42:25;9.38;;;8.43;;
58308;SDS011;44117;57.142;24.826;2022-07-01T09:45:00;13.07;;;8.57;;
58308;SDS011;44117;57.142;24.826;2022-07-01T09:47:33;9.43;;;8.50;;
58308;SDS011;44117;57.142;24.826;2022-07-01T09:50:04;9.15;;;8.30;;
58308;SDS011;44117;57.142;24.826;2022-07-01T09:52:32;11.60;;;8.20;;
58308;SDS011;44117;57.142;24.826;2022-07-01T09:55:03;13.27;;;8.50;;
58308;SDS011;44117;57.142;24.826;2022-07-01T09:57:32;9.20;;;8.30;;
58308;SDS011;44117;57.142;24.826;2022-07-01T10:00:00;11.43;;;8.85;;
58308;SDS011;44117;57.142;24.826;2022-07-01T10:02:30;9.82;;;8.75;;
58308;SDS011;44117;57.142;24.826;2022-07-01T10:05:07;10.77;;;8.50;;
58308;SDS011;44117;57.142;24.826;2022-07-01T10:10:34;10.40;;;8.32;;
58308;SDS011;44117;57.142;24.826;2022-07-01T10:13:12;11.02;;;8.90;;
58308;SDS011;44117;57.142;24.826;2022-07-01T10:15:43;10.17;;;9.20;;
58308;SDS011;44117;57.142;24.826;2022-07-01T10:18:22;9.73;;;7.97;;
58308;SDS011;44117;57.142;24.826;2022-07-01T10:20:52;10.15;;;8.18;;
58308;SDS011;44117;57.142;24.826;2022-07-01T10:23:22;11.48;;;8.20;;
58308;SDS011;44117;57.142;24.826;2022-07-01T10:25:52;11.25;;;8.40;;
58308;SDS011;44117;57.142;24.826;2022-07-01T10:30:49;11.00;;;8.50;;
58308;SDS011;44117;57.142;24.826;2022-07-01T10:33:29;11.43;;;8.10;;
58308;SDS011;44117;57.142;24.826;2022-07-01T10:36:16;8.43;;;7.60;;
58308;SDS011;44117;57.142;24.826;2022-07-01T10:41:30;9.95;;;7.95;;
58308;SDS011;44117;57.142;24.826;2022-07-01T10:44:58;9.18;;;8.05;;
58308;SDS011;44117;57.142;24.826;2022-07-01T10:47:26;8.85;;;7.95;;
58308;SDS011;44117;57.142;24.826;2022-07-01T10:49:54;14.05;;;8.48;;
58308;SDS011;44117;57.142;24.826;2022-07-01T10:52:23;10.18;;;7.85;;
58308;SDS011;44117;57.142;24.826;2022-07-01T10:54:54;8.60;;;7.85;;
58308;SDS011;44117;57.142;24.826;2022-07-01T10:57:27;10.43;;;7.53;;
58308;SDS011;44117;57.142;24.826;2022-07-01T11:02:28;10.73;;;7.35;;
58308;SDS011;44117;57.142;24.826;2022-07-01T11:05:07;8.27;;;7.03;;
58308;SDS011;44117;57.142;24.826;2022-07-01T11:07:35;8.77;;;7.70;;
58308;SDS011;44117;57.142;24.826;2022-07-01T11:10:04;8.25;;;7.47;;
58308;SDS011;44117;57.142;24.826;2022-07-01T11:12:33;9.43;;;7.70;;
58308;SDS011;44117;57.142;24.826;2022-07-01T11:15:02;8.20;;;7.40;;
58308;SDS011;44117;57.142;24.826;2022-07-01T11:20:01;8.85;;;7.07;;
58308;SDS011;44117;57.142;24.826;2022-07-01T11:22:30;8.40;;;7.28;;
58308;SDS011;44117;57.142;24.826;2022-07-01T11:25:03;8.40;;;7.20;;
58308;SDS011;44117;57.142;24.826;2022-07-01T11:27:33;8.77;;;7.13;;
58308;SDS011;44117;57.142;24.826;2022-07-01T11:30:05;12.73;;;7.15;;
58308;SDS011;44117;57.142;24.826;2022-07-01T11:32:36;7.57;;;6.70;;
58308;SDS011;44117;57.142;24.826;2022-07-01T11:35:05;8.65;;;6.85;;
58308;SDS011;44117;57.142;24.826;2022-07-01T11:37:51;7.78;;;6.65;;
58308;SDS011;44117;57.142;24.826;2022-07-01T11:40:37;12.05;;;7.30;;
58308;SDS011;44117;57.142;24.826;2022-07-01T11:43:17;10.70;;;7.20;;
58308;SDS011;44117;57.142;24.826;2022-07-01T11:45:45;7.45;;;6.60;;
58308;SDS011;44117;57.142;24.826;2022-07-01T11:48:27;7.30;;;6.60;;
58308;SDS011;44117;57.142;24.826;2022-07-01T11:50:55;11.45;;;7.18;;
58308;SDS011;44117;57.142;24.826;2022-07-01T11:53:23;7.68;;;6.75;;
58308;SDS011;44117;57.142;24.826;2022-07-01T11:55:51;9.43;;;7.90;;
58308;SDS011;44117;57.142;24.826;2022-07-01T11:58:18;9.25;;;7.45;;
58308;SDS011;44117;57.142;24.826;2022-07-01T12:00:46;8.55;;;7.63;;
58308;SDS011;44117;57.142;24.826;2022-07-01T12:03:13;8.07;;;7.15;;
58308;SDS011;44117;57.142;24.826;2022-07-01T12:05:56;9.75;;;7.50;;
58308;SDS011;44117;57.142;24.826;2022-07-01T12:08:24;9.45;;;7.63;;
58308;SDS011;44117;57.142;24.826;2022-07-01T12:10:52;10.25;;;7.63;;
58308;SDS011;44117;57.142;24.826;2022-07-01T12:13:20;8.32;;;7.53;;
58308;SDS011;44117;57.142;24.826;2022-07-01T12:15:49;10.38;;;7.50;;
58308;SDS011;44117;57.142;24.826;2022-07-01T12:18:17;8.45;;;6.85;;
58308;SDS011;44117;57.142;24.826;2022-07-01T12:20:48;9.98;;;7.63;;
58308;SDS011;44117;57.142;24.826;2022-07-01T12:23:20;7.53;;;6.82;;
58308;SDS011;44117;57.142;24.826;2022-07-01T12:25:48;12.27;;;7.68;;
58308;SDS011;44117;57.142;24.826;2022-07-01T12:28:53;8.48;;;7.30;;
58308;SDS011;44117;57.142;24.826;2022-07-01T12:31:11;12.57;;;7.60;;
58308;SDS011;44117;57.142;24.826;2022-07-01T12:33:39;9.23;;;7.57;;
58308;SDS011;44117;57.142;24.826;2022-07-01T12:36:14;10.15;;;7.47;;
58308;SDS011;44117;57.142;24.826;2022-07-01T12:38:42;14.23;;;7.78;;
58308;SDS011;44117;57.142;24.826;2022-07-01T12:41:26;11.00;;;7.72;;
58308;SDS011;44117;57.142;24.826;2022-07-01T12:44:05;8.18;;;7.38;;
58308;SDS011;44117;57.142;24.826;2022-07-01T12:46:48;12.65;;;8.13;;
58308;SDS011;44117;57.142;24.826;2022-07-01T12:49:23;9.18;;;8.00;;
58308;SDS011;44117;57.142;24.826;2022-07-01T12:51:51;8.05;;;7.22;;
58308;SDS011;44117;57.142;24.826;2022-07-01T12:54:37;7.93;;;7.15;;
58308;SDS011;44117;57.142;24.826;2022-07-01T12:57:06;8.30;;;7.30;;
58308;SDS011;44117;57.142;24.826;2022-07-01T12:59:33;10.50;;;7.40;;
58308;SDS011;44117;57.142;24.826;2022-07-01T13:02:01;9.00;;;7.38;;
58308;SDS011;44117;57.142;24.826;2022-07-01T13:04:29;8.38;;;7.47;;
58308;SDS011;44117;57.142;24.826;2022-07-01T13:06:57;9.35;;;7.22;;
58308;SDS011;44117;57.142;24.826;2022-07-01T13:09:24;9.63;;;8.57;;
58308;SDS011;44117;57.142;24.826;2022-07-01T13:11:52;9.57;;;7.90;;
58308;SDS011;44117;57.142;24.826;2022-07-01T13:14:19;9.23;;;7.40;;
58308;SDS011;44117;57.142;24.826;2022-07-01T13:16:46;11.32;;;7.40;;
58308;SDS011;44117;57.142;24.826;2022-07-01T13:19:14;12.73;;;7.38;;
58308;SDS011;44117;57.142;24.826;2022-07-01T13:21:41;9.20;;;6.93;;
58308;SDS011;44117;57.142;24.826;2022-07-01T13:24:09;12.95;;;7.50;;
58308;SDS011;44117;57.142;24.826;2022-07-01T13:26:56;7.70;;;6.90;;
58308;SDS011;44117;57.142;24.826;2022-07-01T13:29:24;8.70;;;7.03;;
58308;SDS011;44117;57.142;24.826;2022-07-01T13:31:53;8.68;;;6.57;;
58308;SDS011;44117;57.142;24.826;2022-07-01T13:34:21;7.43;;;6.47;;
58308;SDS011;44117;57.142;24.826;2022-07-01T13:36:48;12.25;;;7.13;;
58308;SDS011;44117;57.142;24.826;2022-07-01T13:39:16;12.98;;;7.82;;
58308;SDS011;44117;57.142;24.826;2022-07-01T13:41:44;20.95;;;7.75;;
58308;SDS011;44117;57.142;24.826;2022-07-01T13:44:11;13.55;;;7.68;;
58308;SDS011;44117;57.142;24.826;2022-07-01T13:46:39;13.95;;;7.68;;
58308;SDS011;44117;57.142;24.826;2022-07-01T13:49:12;9.40;;;7.93;;
58308;SDS011;44117;57.142;24.826;2022-07-01T13:51:41;9.98;;;7.63;;
58308;SDS011;44117;57.142;24.826;2022-07-01T13:54:09;10.68;;;7.53;;
58308;SDS011;44117;57.142;24.826;2022-07-01T13:56:36;8.45;;;7.45;;
58308;SDS011;44117;57.142;24.826;2022-07-01T13:59:04;12.52;;;8.43;;
58308;SDS011;44117;57.142;24.826;2022-07-01T14:01:31;8.70;;;7.80;;
58308;SDS011;44117;57.142;24.826;2022-07-01T14:04:01;11.10;;;7.88;;
58308;SDS011;44117;57.142;24.826;2022-07-01T14:06:28;13.38;;;8.27;;
58308;SDS011;44117;57.142;24.826;2022-07-01T14:08:56;10.68;;;8.05;;
58308;SDS011;44117;57.142;24.826;2022-07-01T14:11:23;11.45;;;7.93;;
58308;SDS011;44117;57.142;24.826;2022-07-01T14:13:50;10.15;;;7.90;;
58308;SDS011;44117;57.142;24.826;2022-07-01T14:16:17;11.27;;;7.72;;
58308;SDS011;44117;57.142;24.826;2022-07-01T14:18:45;13.95;;;7.63;;
58308;SDS011;44117;57.142;24.826;2022-07-01T14:21:12;9.48;;;7.60;;
58308;SDS011;44117;57.142;24.826;2022-07-01T14:23:40;10.95;;;8.20;;
58308;SDS011;44117;57.142;24.826;2022-07-01T14:26:07;10.35;;;7.10;;
58308;SDS011;44117;57.142;24.826;2022-07-01T14:28:34;9.70;;;7.57;;
58308;SDS011;44117;57.142;24.826;2022-07-01T14:31:02;9.85;;;7.80;;
58308;SDS011;44117;57.142;24.826;2022-07-01T14:33:29;11.07;;;8.18;;
58308;SDS011;44117;57.142;24.826;2022-07-01T14:35:56;10.02;;;8.05;;
58308;SDS011;44117;57.142;24.826;2022-07-01T14:38:24;9.30;;;7.30;;
58308;SDS011;44117;57.142;24.826;2022-07-01T14:40:51;9.20;;;6.68;;
58308;SDS011;44117;57.142;24.826;2022-07-01T14:43:19;9.65;;;7.57;;
58308;SDS011;44117;57.142;24.826;2022-07-01T14:45:46;9.90;;;7.47;;
58308;SDS011;44117;57.142;24.826;2022-07-01T14:48:14;15.50;;;7.22;;
58308;SDS011;44117;57.142;24.826;2022-07-01T14:50:41;9.75;;;7.30;;
58308;SDS011;44117;57.142;24.826;2022-07-01T14:53:09;8.13;;;7.22;;
58308;SDS011;44117;57.142;24.826;2022-07-01T14:55:36;10.27;;;7.00;;
58308;SDS011;44117;57.142;24.826;2022-07-01T14:58:04;11.07;;;7.13;;